Time;durP1;ratioP1;P1;durP2;ratioP2;P2;SDS_P1;SDS_P2;PMS_P1;PMS_P2;Temp;Humidity;BMP_temperature;BMP_pressure;BME280_temperature;BME280_humidity;BME280_pressure;Samples;Min_cycle;Max_cycle;Signal;HPM_P1;HPM_P2
2022/06/02 00:02:41;;;;;;;5.80;4.43;;;7.60;99.90;;;;;;5091322;28;20051;-78
2022/06/02 00:05:34;;;;;;;7.07;5.40;;;7.60;99.90;;;;;;5091303;28;20131;-76
2022/06/02 00:08:19;;;;;;;7.70;5.93;;;7.50;99.90;;;;;;5090893;28;20494;-79
2022/06/02 00:11:07;;;;;;;7.00;5.05;;;7.60;99.90;;;;;;5090671;28;20097;-79
2022/06/02 00:14:04;;;;;;;9.57;7.45;;;7.50;99.90;;;;;;5091035;28;20119;-79
2022/06/02 00:17:06;;;;;;;6.78;4.93;;;7.50;99.90;;;;;;5072463;28;20083;-79
2022/06/02 00:19:45;;;;;;;12.52;7.03;;;7.50;99.90;;;;;;5070464;28;20127;-77
2022/06/02 00:22:31;;;;;;;9.23;7.30;;;7.50;99.90;;;;;;5070518;28;20392;-75
2022/06/02 00:25:13;;;;;;;13.52;7.85;;;7.40;99.90;;;;;;5065793;28;20072;-74
2022/06/02 00:28:00;;;;;;;11.60;8.35;;;7.50;99.90;;;;;;5052299;28;20045;-74
2022/06/02 00:30:37;;;;;;;9.52;7.40;;;7.40;99.90;;;;;;5052227;28;20052;-76
2022/06/02 00:33:14;;;;;;;10.57;7.00;;;7.40;99.90;;;;;;5070126;28;20044;-75
2022/06/02 00:36:00;;;;;;;7.53;5.85;;;7.40;99.90;;;;;;5070188;28;20045;-75
2022/06/02 00:38:34;;;;;;;12.85;6.63;;;7.30;99.90;;;;;;5070035;28;20058;-77
2022/06/02 00:41:40;;;;;;;7.63;6.00;;;7.30;99.90;;;;;;5070192;28;20097;-75
2022/06/02 00:44:30;;;;;;;7.18;5.35;;;7.20;99.90;;;;;;4969139;28;20062;-79
2022/06/02 00:47:02;;;;;;;11.23;7.90;;;7.20;99.90;;;;;;4953219;28;20069;-80
2022/06/02 00:49:57;;;;;;;11.30;6.90;;;7.20;99.90;;;;;;4968850;28;20121;-79
2022/06/02 00:52:29;;;;;;;10.63;7.10;;;7.20;99.90;;;;;;4952954;28;20070;-80
2022/06/02 00:58:43;;;;;;;10.82;7.35;;;7.10;99.90;;;;;;4911620;29;20064;-80
2022/06/02 01:01:13;;;;;;;7.50;6.35;;;7.10;99.90;;;;;;4911452;29;20611;-78
2022/06/02 01:03:52;;;;;;;11.02;7.70;;;7.10;99.90;;;;;;4911394;29;20041;-79
2022/06/02 01:06:23;;;;;;;11.05;8.43;;;7.00;99.90;;;;;;4911102;29;20139;-75
2022/06/02 01:09:16;;;;;;;12.15;9.40;;;7.10;99.90;;;;;;4911120;29;20064;-79
2022/06/02 01:11:59;;;;;;;11.13;8.88;;;7.10;99.90;;;;;;4911600;29;20052;-74
2022/06/02 01:14:25;;;;;;;13.13;9.68;;;7.10;99.90;;;;;;4911639;29;20056;-74
2022/06/02 01:17:08;;;;;;;12.23;9.18;;;7.00;99.90;;;;;;4911576;29;20106;-77
2022/06/02 01:20:11;;;;;;;13.60;9.63;;;7.10;99.90;;;;;;4924627;28;20054;-77
2022/06/02 01:22:59;;;;;;;11.35;9.10;;;7.10;99.90;;;;;;4988289;28;20152;-78
2022/06/02 01:26:07;;;;;;;10.20;8.40;;;7.00;99.90;;;;;;5004018;28;20057;-78
2022/06/02 01:28:51;;;;;;;12.98;9.35;;;7.00;99.90;;;;;;5007652;28;20053;-79
2022/06/02 01:31:26;;;;;;;13.85;9.18;;;7.00;99.90;;;;;;5007520;28;20050;-79
2022/06/02 01:34:04;;;;;;;12.00;9.55;;;7.00;99.90;;;;;;5030044;28;20057;-78
2022/06/02 01:36:46;;;;;;;13.38;9.10;;;7.00;99.90;;;;;;5069318;28;20085;-79
2022/06/02 01:39:33;;;;;;;14.48;8.85;;;7.00;99.90;;;;;;5051816;28;20055;-79
2022/06/02 01:42:19;;;;;;;11.48;9.30;;;7.00;99.90;;;;;;5052037;28;20514;-79
2022/06/02 01:45:09;;;;;;;12.18;9.23;;;7.00;99.90;;;;;;5051621;28;20048;-77
2022/06/02 01:47:38;;;;;;;9.80;7.32;;;6.90;99.90;;;;;;5069712;28;20052;-78
2022/06/02 01:50:37;;;;;;;10.93;8.07;;;6.90;99.90;;;;;;5069525;28;20094;-78
2022/06/02 01:53:23;;;;;;;11.95;9.27;;;6.90;99.90;;;;;;5069568;28;20083;-76
2022/06/02 01:56:08;;;;;;;11.13;7.72;;;6.90;99.90;;;;;;5054933;28;20509;-74
2022/06/02 01:58:58;;;;;;;8.80;6.50;;;6.80;99.90;;;;;;5073436;28;20044;-79
2022/06/02 02:01:29;;;;;;;13.05;9.05;;;6.80;99.90;;;;;;5054300;28;20057;-79
2022/06/02 02:04:14;;;;;;;12.63;9.65;;;6.80;99.90;;;;;;5072868;28;20391;-78
2022/06/02 02:07:09;;;;;;;12.33;9.73;;;6.80;99.90;;;;;;5072470;28;20048;-78
2022/06/02 02:09:54;;;;;;;13.30;9.90;;;6.90;99.90;;;;;;4971918;28;20059;-78
2022/06/02 02:12:41;;;;;;;12.52;9.68;;;6.80;99.90;;;;;;4971559;28;20399;-78
2022/06/02 02:15:39;;;;;;;13.65;11.05;;;6.80;99.90;;;;;;4970575;28;20065;-77
2022/06/02 02:18:20;;;;;;;13.48;10.27;;;7.00;99.90;;;;;;4967268;28;20089;-77
2022/06/02 02:20:52;;;;;;;15.48;10.90;;;6.90;99.90;;;;;;4974696;28;20065;-78
2022/06/02 02:23:40;;;;;;;14.05;11.32;;;6.90;99.90;;;;;;4993780;28;20576;-79
2022/06/02 02:26:21;;;;;;;15.63;12.35;;;6.90;99.90;;;;;;4991251;28;20117;-79
2022/06/02 02:29:05;;;;;;;14.27;10.73;;;6.90;99.90;;;;;;4990751;28;20065;-75
2022/06/02 02:31:38;;;;;;;15.35;11.27;;;6.90;99.90;;;;;;4990397;28;20228;-76
2022/06/02 02:34:33;;;;;;;14.45;11.25;;;6.90;99.90;;;;;;4991113;28;20595;-77
2022/06/02 02:37:17;;;;;;;17.17;11.65;;;6.90;99.90;;;;;;4980292;28;20144;-75
2022/06/02 02:39:59;;;;;;;18.00;12.02;;;6.80;99.90;;;;;;4990665;28;20058;-78
2022/06/02 02:42:36;;;;;;;15.75;11.82;;;6.80;99.90;;;;;;4990547;28;20137;-77
2022/06/02 02:45:09;;;;;;;16.92;11.52;;;6.80;99.90;;;;;;4987642;28;20061;-77
2022/06/02 02:47:44;;;;;;;16.42;10.93;;;6.90;99.90;;;;;;5076539;28;20048;-78
2022/06/02 02:50:14;;;;;;;12.75;10.40;;;6.80;99.90;;;;;;5089798;28;20649;-78
2022/06/02 02:53:02;;;;;;;14.07;10.98;;;6.80;99.90;;;;;;5090312;28;20125;-77
2022/06/02 02:55:34;;;;;;;16.52;11.50;;;6.80;99.90;;;;;;5074152;28;20132;-77
2022/06/02 02:58:24;;;;;;;14.82;10.07;;;6.80;99.90;;;;;;5092198;28;20044;-78
2022/06/02 03:01:14;;;;;;;15.60;10.90;;;6.80;99.90;;;;;;5092056;28;20062;-74
2022/06/02 03:04:01;;;;;;;14.52;10.32;;;6.80;99.90;;;;;;5092272;28;20055;-75
2022/06/02 03:06:31;;;;;;;14.00;10.02;;;6.80;99.90;;;;;;5091800;28;20068;-73
2022/06/02 03:09:12;;;;;;;12.55;10.38;;;6.70;99.90;;;;;;5091370;28;20097;-72
2022/06/02 03:11:52;;;;;;;13.23;10.43;;;6.70;99.90;;;;;;5090834;28;20091;-76
2022/06/02 03:14:32;;;;;;;10.52;8.30;;;6.70;99.90;;;;;;5084741;28;20047;-73
2022/06/02 03:17:14;;;;;;;11.68;8.60;;;6.60;99.90;;;;;;5075368;28;20062;-75
2022/06/02 03:19:42;;;;;;;11.88;9.18;;;7.10;99.90;;;;;;5068743;28;20044;-74
2022/06/02 03:22:28;;;;;;;10.98;8.50;;;6.60;99.90;;;;;;5063094;28;20060;-76
2022/06/02 03:25:13;;;;;;;10.95;8.13;;;6.60;99.90;;;;;;5090790;28;20098;-73
2022/06/02 03:27:39;;;;;;;12.60;9.13;;;6.60;99.90;;;;;;5091791;28;20055;-73
2022/06/02 03:30:26;;;;;;;11.95;8.95;;;6.60;99.90;;;;;;5091848;28;20040;-74
2022/06/02 03:33:25;;;;;;;10.35;8.23;;;6.60;99.90;;;;;;5092076;28;20047;-76
2022/06/02 03:35:58;;;;;;;14.13;9.73;;;6.50;99.90;;;;;;5091804;28;20079;-74
2022/06/02 03:38:43;;;;;;;11.75;9.52;;;6.50;99.90;;;;;;5091284;28;20075;-74
2022/06/02 03:41:33;;;;;;;12.63;8.65;;;6.50;99.90;;;;;;5091159;28;20804;-73
2022/06/02 03:44:24;;;;;;;13.50;8.55;;;6.50;99.90;;;;;;5090709;28;21608;-76
2022/06/02 03:46:53;;;;;;;10.35;8.65;;;6.50;99.90;;;;;;5090745;28;20040;-77
2022/06/02 03:49:44;;;;;;;13.10;9.95;;;6.50;99.90;;;;;;5091229;28;20062;-77
2022/06/02 03:52:28;;;;;;;10.15;8.45;;;6.60;99.90;;;;;;5091463;28;20399;-77
2022/06/02 03:55:12;;;;;;;14.38;8.77;;;6.60;99.90;;;;;;5090975;28;20089;-77
2022/06/02 03:58:00;;;;;;;13.93;8.45;;;6.60;99.90;;;;;;5073288;28;20046;-76
2022/06/02 04:00:52;;;;;;;11.50;8.80;;;6.60;99.90;;;;;;5080951;28;20036;-78
2022/06/02 04:04:02;;;;;;;12.77;9.38;;;6.60;99.90;;;;;;5085319;28;20051;-72
2022/06/02 04:06:49;;;;;;;15.25;9.82;;;6.60;99.90;;;;;;5008499;28;20042;-78
2022/06/02 04:09:42;;;;;;;13.43;8.73;;;6.70;99.90;;;;;;5008109;28;20635;-75
2022/06/02 04:15:30;;;;;;;14.60;9.70;;;6.70;99.90;;;;;;5008147;28;20050;-77
2022/06/02 04:18:20;;;;;;;12.80;9.27;;;6.80;99.90;;;;;;4991489;28;20054;-76
2022/06/02 04:20:51;;;;;;;12.73;9.88;;;6.80;99.90;;;;;;5008316;28;20064;-78
2022/06/02 04:23:31;;;;;;;13.18;9.05;;;6.80;99.90;;;;;;5007993;28;20057;-75
2022/06/02 04:26:06;;;;;;;11.38;9.13;;;6.90;99.90;;;;;;5008105;28;20049;-77
2022/06/02 04:28:51;;;;;;;;;;;6.90;99.90;;;;;;4992611;28;20100;-78
2022/06/02 04:31:53;;;;;;;14.88;9.77;;;7.00;99.90;;;;;;5007842;28;19949;-78
2022/06/02 04:34:49;;;;;;;20.45;9.82;;;7.10;99.90;;;;;;5007451;28;20049;-78
2022/06/02 04:37:47;;;;;;;14.68;9.32;;;7.10;99.90;;;;;;5007415;28;20615;-75
2022/06/02 04:40:38;;;;;;;12.32;9.40;;;7.20;99.90;;;;;;5007519;28;20042;-73
2022/06/02 04:43:12;;;;;;;10.80;9.13;;;7.30;99.90;;;;;;5042028;28;20139;-75
2022/06/02 04:45:43;;;;;;;11.90;9.35;;;7.30;99.90;;;;;;5061641;28;20068;-77
2022/06/02 04:48:39;;;;;;;12.05;9.55;;;7.40;99.90;;;;;;5076761;28;20051;-73
2022/06/02 04:51:24;;;;;;;13.30;9.15;;;7.50;99.90;;;;;;4981028;28;20054;-75
2022/06/02 04:54:09;;;;;;;17.00;10.03;;;7.60;99.90;;;;;;4988272;28;20050;-76
2022/06/02 04:56:44;;;;;;;;;;;7.70;99.90;;;;;;4987905;28;20054;-77
2022/06/02 04:59:20;;;;;;;12.75;8.93;;;7.80;99.90;;;;;;4988261;28;20489;-78
2022/06/02 05:02:00;;;;;;;14.98;9.60;;;7.90;99.90;;;;;;4987902;28;20480;-77
2022/06/02 05:04:51;;;;;;;14.43;9.10;;;8.00;99.90;;;;;;4987600;28;20054;-77
2022/06/02 05:07:37;;;;;;;16.70;9.68;;;8.10;99.90;;;;;;4987994;28;20065;-74
2022/06/02 05:10:11;;;;;;;13.23;9.13;;;8.30;99.90;;;;;;4971747;28;20039;-78
2022/06/02 05:12:55;;;;;;;15.65;9.10;;;8.40;99.90;;;;;;4971131;28;20133;-75
2022/06/02 05:15:36;;;;;;;11.70;8.35;;;8.50;99.90;;;;;;4987536;28;20050;-74
2022/06/02 05:18:39;;;;;;;13.52;8.52;;;8.70;99.90;;;;;;4971325;28;20054;-77
2022/06/02 05:21:04;;;;;;;11.02;7.75;;;8.90;99.90;;;;;;4987840;28;20055;-76
2022/06/02 05:23:50;;;;;;;12.32;8.75;;;9.10;99.90;;;;;;4987567;28;20128;-75
2022/06/02 05:26:48;;;;;;;11.15;7.95;;;9.20;99.90;;;;;;4987421;28;20065;-78
2022/06/02 05:29:19;;;;;;;12.15;6.68;;;9.30;99.90;;;;;;5059440;28;20051;-76
2022/06/02 05:32:00;;;;;;;9.55;7.15;;;9.40;99.90;;;;;;5073779;28;20087;-78
2022/06/02 05:35:01;;;;;;;10.00;6.57;;;9.60;99.90;;;;;;5093974;28;20118;-75
2022/06/02 05:37:46;;;;;;;10.30;7.07;;;9.70;99.90;;;;;;5075823;28;20087;-79
2022/06/02 05:40:11;;;;;;;;;;;9.90;99.90;;;;;;5094156;28;20044;-75
2022/06/02 05:43:08;;;;;;;8.43;6.47;;;10.00;99.90;;;;;;5093906;28;19923;-77
2022/06/02 05:45:59;;;;;;;10.85;5.68;;;10.10;99.90;;;;;;5092282;28;20051;-78
2022/06/02 05:48:33;;;;;;;7.30;5.70;;;10.30;99.90;;;;;;5093196;28;20044;-76
2022/06/02 05:51:13;;;;;;;9.15;4.90;;;10.40;99.90;;;;;;5093709;28;20050;-75
2022/06/02 05:53:59;;;;;;;7.78;4.95;;;10.50;99.90;;;;;;5093450;28;20458;-75
2022/06/02 05:56:49;;;;;;;7.55;4.55;;;10.70;99.90;;;;;;5075331;28;20102;-76
2022/06/02 05:59:35;;;;;;;7.00;4.57;;;10.80;99.90;;;;;;5093519;28;20066;-78
2022/06/02 06:02:33;;;;;;;10.45;4.70;;;11.00;99.90;;;;;;5092831;28;20079;-75
2022/06/02 06:05:30;;;;;;;6.70;4.53;;;11.10;99.90;;;;;;5093562;28;20076;-78
2022/06/02 06:08:20;;;;;;;7.38;4.30;;;11.30;99.90;;;;;;5093319;28;20047;-76
2022/06/02 06:11:23;;;;;;;6.05;4.13;;;11.40;99.90;;;;;;5083710;28;20056;-79
2022/06/02 06:14:34;;;;;;;6.68;3.60;;;11.50;99.90;;;;;;5074572;28;20059;-76
2022/06/02 06:17:00;;;;;;;6.05;3.40;;;11.60;99.90;;;;;;5092884;28;20052;-75
2022/06/02 06:19:31;;;;;;;6.35;3.58;;;11.80;99.90;;;;;;5074938;28;20059;-79
2022/06/02 06:22:40;;;;;;;4.88;2.83;;;11.90;99.90;;;;;;5092946;28;20127;-78
2022/06/02 06:25:06;;;;;;;6.07;2.50;;;12.00;99.90;;;;;;5010713;28;20049;-78
2022/06/02 06:27:38;;;;;;;4.15;2.67;;;12.10;99.90;;;;;;5010973;28;20582;-76
2022/06/02 06:30:10;;;;;;;6.28;2.72;;;12.30;99.90;;;;;;5010004;28;20452;-76
2022/06/02 06:32:39;;;;;;;5.88;2.80;;;12.30;99.90;;;;;;5010615;28;20065;-75
2022/06/02 06:35:30;;;;;;;6.10;2.78;;;12.60;99.90;;;;;;5010519;28;20045;-80
2022/06/02 06:38:32;;;;;;;12.02;2.30;;;12.70;99.90;;;;;;4994217;28;20184;-79
2022/06/02 06:41:37;;;;;;;4.13;2.10;;;12.80;99.90;;;;;;4992913;28;20081;-76
2022/06/02 06:44:16;;;;;;;5.07;2.25;;;13.10;99.90;;;;;;5009103;28;20117;-79
2022/06/02 06:46:49;;;;;;;6.00;2.15;;;13.20;99.90;;;;;;5010266;28;20515;-78
2022/06/02 06:49:39;;;;;;;4.47;1.90;;;13.30;99.90;;;;;;5010006;28;20057;-80
2022/06/02 06:52:05;;;;;;;4.40;2.30;;;13.60;99.90;;;;;;4932557;29;20063;-76
2022/06/02 06:55:06;;;;;;;3.95;1.88;;;13.30;99.90;;;;;;4932535;29;20123;-81
2022/06/02 06:57:43;;;;;;;3.20;1.92;;;13.50;99.90;;;;;;4984998;28;20073;-80
2022/06/02 07:00:21;;;;;;;5.65;2.10;;;13.70;99.90;;;;;;5002671;28;20050;-78
2022/06/02 07:03:07;;;;;;;3.83;2.13;;;13.90;99.90;;;;;;4990530;28;20123;-80
2022/06/02 07:05:44;;;;;;;4.35;1.55;;;14.00;99.90;;;;;;4990298;28;20110;-82
2022/06/02 07:08:35;;;;;;;5.88;1.70;;;14.10;99.90;;;;;;4990387;28;20054;-78
2022/06/02 07:12:50;;;;;;;3.53;1.30;;;14.00;99.90;;;;;;4973889;28;20066;-80
2022/06/02 07:14:17;;;;;;;3.65;1.85;;;13.90;99.90;;;;;;4988294;28;20049;-80
2022/06/02 07:16:50;;;;;;;3.65;1.50;;;14.10;99.90;;;;;;5009453;28;20129;-78
2022/06/02 07:19:29;;;;;;;2.88;1.35;;;14.00;99.90;;;;;;5009559;28;20042;-79
2022/06/02 07:22:17;;;;;;;5.03;1.92;;;14.20;99.90;;;;;;5009448;28;20108;-79
2022/06/02 07:25:16;;;;;;;5.13;2.10;;;14.50;99.90;;;;;;5009184;28;20054;-74
2022/06/02 07:28:09;;;;;;;3.80;2.10;;;14.60;99.90;;;;;;5009569;28;20050;-79
2022/06/02 07:31:12;;;;;;;4.75;1.88;;;14.60;99.90;;;;;;5053341;28;20060;-77
2022/06/02 07:33:51;;;;;;;4.03;1.75;;;14.50;99.90;;;;;;5070392;28;20056;-77
2022/06/02 07:36:38;;;;;;;3.22;1.50;;;14.50;99.90;;;;;;5091604;28;20482;-80
2022/06/02 07:39:18;;;;;;;3.65;2.05;;;14.50;99.90;;;;;;5055855;28;20118;-79
2022/06/02 07:42:16;;;;;;;4.25;1.55;;;14.70;99.90;;;;;;5053564;28;20053;-80
2022/06/02 07:45:00;;;;;;;4.85;1.50;;;15.10;99.90;;;;;;4973250;28;20058;-79
2022/06/02 07:47:53;;;;;;;5.33;1.63;;;15.00;99.90;;;;;;4973360;28;20050;-80
2022/06/02 07:50:49;;;;;;;3.63;1.33;;;14.90;99.90;;;;;;4989459;28;20061;-77
2022/06/02 07:53:14;;;;;;;;;;;14.80;99.90;;;;;;4989141;28;20170;-76
2022/06/02 07:55:52;;;;;;;3.92;1.27;;;14.80;99.90;;;;;;4989512;28;19965;-80
2022/06/02 07:59:00;;;;;;;4.30;1.23;;;15.10;99.90;;;;;;4989594;28;20133;-79
2022/06/02 08:02:03;;;;;;;4.15;1.50;;;15.30;99.90;;;;;;4989281;28;20062;-80
2022/06/02 08:04:47;;;;;;;4.47;1.23;;;15.10;99.90;;;;;;4974014;28;20050;-75
2022/06/02 08:07:26;;;;;;;6.35;1.50;;;15.30;99.90;;;;;;5006464;28;20411;-74
2022/06/02 08:10:07;;;;;;;3.20;1.10;;;15.60;99.90;;;;;;5008016;28;20069;-73
2022/06/02 08:12:56;;;;;;;3.28;0.90;;;15.90;99.90;;;;;;4991761;28;21508;-79
2022/06/02 08:15:44;;;;;;;3.35;1.20;;;15.90;99.90;;;;;;4974982;28;20060;-77
2022/06/02 08:18:36;;;;;;;3.83;1.30;;;16.00;99.90;;;;;;5007880;28;20436;-79
2022/06/02 08:21:20;;;;;;;3.53;1.05;;;15.90;99.90;;;;;;5007957;28;20207;-78
2022/06/02 08:24:07;;;;;;;3.38;1.23;;;16.10;99.90;;;;;;5062458;28;20055;-79
2022/06/02 08:26:39;;;;;;;2.38;1.38;;;16.20;99.90;;;;;;5087465;28;20052;-76
2022/06/02 08:29:07;;;;;;;6.45;1.08;;;16.00;99.90;;;;;;5090346;28;20069;-77
2022/06/02 08:31:59;;;;;;;3.45;1.48;;;15.80;99.90;;;;;;5090347;28;20514;-80
2022/06/02 08:34:51;;;;;;;3.40;1.25;;;15.90;99.90;;;;;;5089991;28;20109;-74
2022/06/02 08:37:44;;;;;;;6.78;1.23;;;16.40;99.90;;;;;;5071025;28;20040;-74
2022/06/02 08:40:39;;;;;;;4.70;1.25;;;16.50;99.90;;;;;;5072383;28;20051;-75
2022/06/02 08:43:41;;;;;;;3.20;1.17;;;16.50;99.90;;;;;;4956256;28;20476;-74
2022/06/02 08:46:12;;;;;;;5.95;1.50;;;16.50;99.90;;;;;;4988421;28;20054;-76
2022/06/02 08:49:08;;;;;;;7.55;1.40;;;16.80;99.90;;;;;;4988089;28;20870;-75
2022/06/02 08:52:12;;;;;;;7.47;1.67;;;17.00;99.90;;;;;;4988080;28;20069;-75
2022/06/02 08:54:56;;;;;;;5.25;1.33;;;17.10;99.90;;;;;;4987898;28;20441;-78
2022/06/02 08:57:31;;;;;;;4.43;1.23;;;17.30;99.90;;;;;;4988354;28;20536;-79
2022/06/02 09:00:34;;;;;;;3.97;1.20;;;17.10;99.90;;;;;;4988151;28;20068;-79
2022/06/02 09:03:34;;;;;;;2.53;1.10;;;16.90;99.90;;;;;;4987100;28;20057;-80
2022/06/02 09:06:24;;;;;;;4.88;1.33;;;16.70;99.90;;;;;;4988581;28;20053;-78
2022/06/02 09:09:17;;;;;;;2.78;1.10;;;16.80;99.90;;;;;;4988318;28;20046;-79
2022/06/02 09:12:16;;;;;;;2.90;1.30;;;17.20;99.90;;;;;;4987983;28;20050;-82
2022/06/02 09:15:12;;;;;;;2.85;1.00;;;17.30;99.90;;;;;;4914343;29;20088;-79
2022/06/02 09:17:40;;;;;;;4.80;1.02;;;17.30;99.90;;;;;;4929827;29;20140;-79
2022/06/02 09:20:29;;;;;;;4.75;1.20;;;17.30;99.90;;;;;;4972687;28;20476;-79
2022/06/02 09:23:15;;;;;;;2.38;1.10;;;17.30;99.90;;;;;;5016789;28;20072;-77
2022/06/02 09:26:25;;;;;;;3.67;1.25;;;17.30;99.90;;;;;;4966682;28;20055;-77
2022/06/02 09:29:28;;;;;;;4.90;1.60;;;17.30;99.90;;;;;;4968587;28;20051;-78
2022/06/02 09:32:15;;;;;;;3.67;1.35;;;17.10;99.90;;;;;;4968524;28;20069;-77
2022/06/02 09:35:01;;;;;;;9.30;2.17;;;17.40;99.90;;;;;;4968579;28;20147;-78
2022/06/02 09:37:54;;;;;;;6.32;1.88;;;17.60;99.90;;;;;;4968718;28;20065;-76
2022/06/02 09:40:27;;;;;;;5.30;1.00;;;17.70;99.90;;;;;;4968414;28;20057;-75
2022/06/02 09:43:29;;;;;;;4.30;1.40;;;18.20;99.90;;;;;;4968464;28;20065;-77
2022/06/02 09:46:42;;;;;;;4.72;1.90;;;18.20;99.90;;;;;;4963834;28;20106;-78
2022/06/02 09:49:29;;;;;;;2.92;1.30;;;18.30;99.90;;;;;;4961539;28;20142;-78
2022/06/02 09:52:19;;;;;;;5.40;1.40;;;17.70;99.90;;;;;;5005327;28;20393;-79
2022/06/02 09:55:37;;;;;;;5.05;1.27;;;17.50;99.90;;;;;;5027332;28;20546;-81
2022/06/02 09:58:47;;;;;;;3.53;1.20;;;17.60;99.90;;;;;;4968521;28;20069;-77
2022/06/02 10:01:32;;;;;;;2.55;1.20;;;17.80;99.90;;;;;;4873466;29;20056;-79
2022/06/02 10:04:15;;;;;;;3.40;1.45;;;17.90;99.90;;;;;;4909150;29;20135;-77
2022/06/02 10:07:14;;;;;;;2.08;0.90;;;18.00;99.90;;;;;;4910948;29;20067;-80
2022/06/02 10:10:00;;;;;;;3.45;1.13;;;18.10;99.90;;;;;;4910623;29;20063;-80
2022/06/02 10:12:57;;;;;;;3.40;1.20;;;18.30;99.90;;;;;;4910335;29;20851;-78
2022/06/02 10:15:34;;;;;;;2.25;1.02;;;18.70;99.90;;;;;;4911646;29;20066;-78
2022/06/02 10:18:22;;;;;;;3.47;1.40;;;19.10;99.90;;;;;;4880200;29;20052;-77
2022/06/02 10:21:10;;;;;;;4.45;1.35;;;19.30;99.90;;;;;;4894883;29;20062;-79
2022/06/02 10:23:39;;;;;;;4.72;0.90;;;19.10;99.90;;;;;;4895120;29;20868;-78
2022/06/02 10:26:43;;;;;;;5.68;1.13;;;18.70;99.90;;;;;;4895160;29;20060;-78
2022/06/02 10:29:43;;;;;;;3.63;1.08;;;18.30;99.90;;;;;;4919535;28;20142;-76
2022/06/02 10:32:37;;;;;;;1.95;0.88;;;18.40;99.90;;;;;;5021001;28;20126;-80
2022/06/02 10:35:40;;;;;;;3.40;1.08;;;18.60;99.90;;;;;;5072402;28;20056;-81
2022/06/02 10:38:05;;;;;;;3.88;1.27;;;19.20;99.90;;;;;;5054915;28;20101;-77
2022/06/02 10:40:50;;;;;;;3.05;1.30;;;19.70;99.90;;;;;;5072416;28;20055;-80
2022/06/02 10:43:25;;;;;;;3.17;1.20;;;19.70;99.90;;;;;;5038987;28;20048;-81
2022/06/02 10:45:58;;;;;;;3.35;1.25;;;19.40;99.90;;;;;;5077903;28;20055;-81
2022/06/02 10:48:49;;;;;;;2.75;1.13;;;19.20;99.90;;;;;;5092741;28;20051;-78
2022/06/02 10:51:52;;;;;;;1.75;1.08;;;19.00;99.90;;;;;;5092403;28;20063;-80
2022/06/02 10:54:37;;;;;;;4.70;1.42;;;19.10;99.90;;;;;;5092665;28;20040;-82
2022/06/02 10:57:23;;;;;;;3.72;1.23;;;19.50;99.90;;;;;;5072181;28;20464;-82
2022/06/02 11:00:20;;;;;;;2.15;0.93;;;20.10;99.90;;;;;;5072161;28;20491;-80
2022/06/02 11:03:08;;;;;;;3.40;1.02;;;20.20;99.90;;;;;;5072529;28;20049;-82
2022/06/02 11:06:11;;;;;;;4.85;1.30;;;20.40;99.90;;;;;;5054102;28;20056;-82
2022/06/02 11:08:48;;;;;;;2.95;1.23;;;20.60;99.90;;;;;;5072357;28;20419;-82
2022/06/02 11:11:44;;;;;;;6.32;1.52;;;20.60;99.90;;;;;;5059581;28;20073;-81
2022/06/02 11:14:35;;;;;;;5.18;1.30;;;20.70;99.90;;;;;;5092030;28;20080;-79
2022/06/02 11:17:04;;;;;;;2.15;1.00;;;20.90;99.90;;;;;;5092010;28;20082;-76
2022/06/02 11:19:59;;;;;;;3.30;1.17;;;21.10;99.90;;;;;;5092200;28;20050;-79
2022/06/02 11:22:37;;;;;;;6.78;1.30;;;21.20;99.90;;;;;;5073742;28;20052;-80
2022/06/02 11:25:12;;;;;;;2.90;1.13;;;20.70;99.90;;;;;;5056660;28;20059;-80
2022/06/02 11:27:49;;;;;;;3.67;1.13;;;20.40;99.90;;;;;;5091887;28;20459;-81
2022/06/02 11:30:34;;;;;;;2.75;0.90;;;19.90;99.90;;;;;;5091987;28;20046;-78
2022/06/02 11:33:36;;;;;;;6.32;1.67;;;19.60;99.90;;;;;;5091692;28;20402;-80
2022/06/02 11:36:31;;;;;;;5.38;1.27;;;19.60;99.90;;;;;;5091608;28;20068;-79
2022/06/02 11:39:03;;;;;;;4.10;1.50;;;19.40;99.90;;;;;;5091775;28;20170;-81
2022/06/02 11:41:43;;;;;;;3.58;1.02;;;19.80;99.90;;;;;;5073277;28;20589;-79
2022/06/02 11:44:14;;;;;;;3.83;1.13;;;20.20;99.90;;;;;;5092053;28;20083;-80
2022/06/02 11:46:58;;;;;;;4.65;1.15;;;20.20;99.90;;;;;;5090658;28;20544;-79
2022/06/02 11:49:33;;;;;;;2.67;1.05;;;20.50;99.90;;;;;;5079029;28;20044;-85
2022/06/02 11:52:04;;;;;;;8.55;1.13;;;20.80;99.90;;;;;;5091256;28;20648;-82
2022/06/02 11:54:29;;;;;;;2.03;0.93;;;20.90;99.90;;;;;;5081810;28;20040;-81
2022/06/02 11:57:19;;;;;;;2.90;0.90;;;20.90;99.90;;;;;;5091100;28;20051;-80
2022/06/02 12:00:12;;;;;;;4.28;1.60;;;21.00;99.90;;;;;;5091583;28;20502;-79
2022/06/02 12:02:53;;;;;;;4.50;1.30;;;21.00;99.90;;;;;;5091174;28;20056;-80
2022/06/02 12:05:31;;;;;;;2.72;1.10;;;20.90;99.90;;;;;;5091271;28;20044;-79
2022/06/02 12:08:27;;;;;;;4.97;1.25;;;20.70;99.90;;;;;;5090840;28;20040;-79
2022/06/02 12:11:16;;;;;;;5.85;1.20;;;20.90;99.90;;;;;;5090951;28;20047;-84
2022/06/02 12:13:55;;;;;;;2.83;1.08;;;21.50;99.90;;;;;;5090439;28;20044;-81
2022/06/02 12:16:50;;;;;;;3.42;1.20;;;21.80;99.90;;;;;;5091179;28;20055;-79
2022/06/02 12:20:06;;;;;;;4.38;1.10;;;22.10;99.90;;;;;;5090836;28;20048;-83
2022/06/02 12:22:38;;;;;;;;;;;22.30;99.90;;;;;;4972852;28;20149;-82
2022/06/02 12:25:24;;;;;;;2.63;0.98;;;22.50;99.90;;;;;;4972522;28;20400;-81
2022/06/02 12:28:11;;;;;;;3.70;1.45;;;22.50;99.90;;;;;;4988766;28;20413;-79
2022/06/02 12:30:43;;;;;;;4.47;1.20;;;22.60;99.90;;;;;;4988740;28;20046;-78
2022/06/02 12:33:43;;;;;;;2.17;1.00;;;21.70;99.90;;;;;;4988734;28;20108;-78
2022/06/02 12:36:26;;;;;;;3.42;1.10;;;21.90;99.90;;;;;;4988530;28;20663;-78
2022/06/02 12:39:16;;;;;;;4.88;1.50;;;22.00;99.90;;;;;;4987917;28;20062;-78
2022/06/02 12:42:04;;;;;;;5.28;0.98;;;22.40;99.90;;;;;;4988743;28;20509;-78
2022/06/02 12:44:43;;;;;;;2.63;1.02;;;22.70;99.90;;;;;;4930696;29;20150;-79
2022/06/02 12:47:11;;;;;;;2.92;1.00;;;22.70;99.90;;;;;;4930978;29;20573;-80
2022/06/02 12:50:04;;;;;;;3.38;1.25;;;22.90;99.90;;;;;;4914798;29;20056;-79
2022/06/02 12:52:57;;;;;;;4.47;1.23;;;22.60;99.90;;;;;;4930850;29;20063;-78
2022/06/02 12:55:59;;;;;;;2.13;1.00;;;22.60;99.90;;;;;;4930650;29;20066;-79
2022/06/02 12:58:46;;;;;;;4.68;1.20;;;22.50;99.90;;;;;;4986496;28;20138;-80
2022/06/02 13:01:39;;;;;;;3.45;0.75;;;22.00;99.90;;;;;;5007843;28;20832;-79
2022/06/02 13:04:41;;;;;;;2.67;1.05;;;22.10;99.90;;;;;;5007801;28;20050;-80
2022/06/02 13:07:25;;;;;;;2.72;1.20;;;22.40;99.90;;;;;;5007834;28;20136;-79
2022/06/02 13:10:06;;;;;;;5.63;1.23;;;22.40;99.90;;;;;;5007381;28;20182;-80
2022/06/02 13:13:07;;;;;;;4.97;1.20;;;22.30;99.90;;;;;;5007724;28;20543;-79
2022/06/02 13:15:36;;;;;;;2.42;1.00;;;22.80;99.90;;;;;;5007353;28;20053;-79
2022/06/02 13:18:24;;;;;;;2.28;1.10;;;22.30;99.90;;;;;;4991188;28;20072;-77
2022/06/02 13:21:05;;;;;;;3.20;1.00;;;22.50;99.90;;;;;;4946009;28;20512;-76
2022/06/02 13:23:52;;;;;;;5.45;1.35;;;22.50;99.90;;;;;;5007299;28;20042;-76
2022/06/02 13:26:39;;;;;;;3.88;1.30;;;22.70;99.90;;;;;;5007659;28;20070;-78
2022/06/02 13:29:42;;;;;;;4.03;1.17;;;22.70;99.90;;;;;;4991511;28;20110;-77
2022/06/02 13:32:13;;;;;;;2.20;1.10;;;23.30;99.90;;;;;;5007593;28;20061;-77
2022/06/02 13:34:58;;;;;;;3.95;0.98;;;22.90;99.90;;;;;;5007537;28;20156;-77
2022/06/02 13:37:48;;;;;;;2.38;0.90;;;23.20;99.90;;;;;;4974993;28;20050;-78
2022/06/02 13:40:39;;;;;;;2.47;0.77;;;23.40;99.90;;;;;;5007479;28;20106;-77
2022/06/02 13:43:29;;;;;;;4.10;1.02;;;23.40;99.50;;;;;;4930294;29;20095;-80
2022/06/02 13:46:23;;;;;;;2.22;0.90;;;23.80;99.90;;;;;;4930189;29;20292;-80
2022/06/02 13:49:08;;;;;;;3.85;1.35;;;23.70;99.80;;;;;;4930652;29;20063;-80
2022/06/02 13:51:49;;;;;;;3.45;1.33;;;23.30;98.80;;;;;;4933563;29;20414;-80
2022/06/02 13:57:30;;;;;;;3.60;0.90;;;23.00;99.50;;;;;;4925396;28;20055;-79
2022/06/02 14:00:20;;;;;;;3.38;0.75;;;23.50;99.40;;;;;;4971815;28;20062;-81
2022/06/02 14:03:04;;;;;;;2.70;0.95;;;23.40;98.40;;;;;;4956039;28;20098;-80
2022/06/02 14:05:44;;;;;;;2.33;0.82;;;23.40;98.10;;;;;;4971637;28;20039;-81
2022/06/02 14:08:28;;;;;;;1.90;0.77;;;23.10;99.50;;;;;;4971977;28;20069;-81
2022/06/02 14:11:05;;;;;;;2.33;0.80;;;23.50;99.30;;;;;;4971771;28;20409;-81
2022/06/02 14:13:48;;;;;;;3.67;0.90;;;23.60;99.50;;;;;;4971389;28;20054;-82
2022/06/02 14:16:31;;;;;;;2.05;0.98;;;23.70;99.20;;;;;;4961617;28;20043;-79
2022/06/02 14:19:31;;;;;;;4.47;0.85;;;23.80;98.00;;;;;;4984636;28;20058;-82
2022/06/02 14:21:56;;;;;;;1.33;0.63;;;24.00;98.30;;;;;;5072907;28;20135;-81
2022/06/02 14:25:01;;;;;;;3.55;0.82;;;24.10;97.90;;;;;;5054830;28;20135;-82
2022/06/02 14:28:08;;;;;;;5.82;0.90;;;24.00;98.80;;;;;;5072457;28;20161;-85
2022/06/02 14:30:51;;;;;;;2.45;0.90;;;24.10;96.40;;;;;;5055208;28;20040;-87
2022/06/02 14:33:22;;;;;;;3.80;0.80;;;24.30;96.00;;;;;;5073127;28;20052;-88
2022/06/02 14:35:51;;;;;;;6.25;0.93;;;24.30;97.00;;;;;;5055026;28;20078;-86